Time;durP1;ratioP1;P1;durP2;ratioP2;P2;SDS_P1;SDS_P2;PMS_P1;PMS_P2;Temp;Humidity;BMP_temperature;BMP_pressure;BME280_temperature;BME280_humidity;BME280_pressure;Samples;Min_cycle;Max_cycle;Signal;HPM_P1;HPM_P2
2022/01/12 00:00:08;;;;;;;59.10;25.85;;;;;;;4.86;50.81;103263.59;4936057;28;96875;-75
2022/01/12 00:02:35;;;;;;;56.40;24.55;;;;;;;4.94;50.62;103263.81;4939821;28;99148;-76
2022/01/12 00:05:01;;;;;;;61.00;25.75;;;;;;;4.89;50.80;103271.56;4933626;28;99450;-75
2022/01/12 00:07:29;;;;;;;59.35;25.38;;;;;;;4.86;51.02;103271.47;4936451;28;98890;-76
2022/01/12 00:09:55;;;;;;;59.45;25.63;;;;;;;4.90;50.63;103273.34;4935158;28;96783;-76
2022/01/12 00:12:21;;;;;;;61.53;24.90;;;;;;;4.62;51.02;103266.44;4930335;28;98933;-77
2022/01/12 00:14:48;;;;;;;56.95;24.85;;;;;;;4.53;51.17;103262.66;4948118;28;99629;-76
2022/01/12 00:17:14;;;;;;;56.97;25.40;;;;;;;4.64;51.51;103245.53;4934181;28;96975;-76
2022/01/12 00:19:41;;;;;;;63.17;25.05;;;;;;;4.78;51.49;103249.44;4934371;28;97242;-78
2022/01/12 00:22:07;;;;;;;62.65;27.50;;;;;;;4.68;51.78;103245.66;4933655;28;99150;-77
2022/01/12 00:25:02;;;;;;;62.35;25.83;;;;;;;4.68;51.59;103248.28;4929450;28;98933;-76
2022/01/12 00:33:10;;;;;;;62.22;26.02;;;;;;;4.72;51.88;103237.06;4937859;28;97829;-76
2022/01/12 00:35:37;;;;;;;60.80;25.77;;;;;;;4.97;51.60;103237.72;4940253;28;99046;-77
2022/01/12 00:38:03;;;;;;;62.88;26.50;;;;;;;4.99;50.86;103236.03;4945313;28;97234;-77
2022/01/12 00:40:31;;;;;;;60.25;24.55;;;;;;;4.90;51.41;103236.66;4936418;28;99016;-77
2022/01/12 00:42:58;;;;;;;63.95;26.17;;;;;;;4.81;51.69;103237.28;4940665;28;98193;-76
2022/01/12 00:45:24;;;;;;;59.33;25.02;;;;;;;5.02;51.76;103242.22;4939120;28;98934;-76
2022/01/12 00:47:50;;;;;;;61.45;25.35;;;;;;;4.73;52.24;103243.16;4935486;28;96883;-77
2022/01/12 00:50:18;;;;;;;55.13;23.75;;;;;;;4.76;52.86;103249.38;4936758;28;97121;-76
2022/01/12 00:52:44;;;;;;;63.30;25.65;;;;;;;4.70;52.63;103248.31;4936363;28;97696;-75
2022/01/12 00:55:11;;;;;;;60.97;25.70;;;;;;;4.77;52.81;103245.03;4935934;28;99232;-75
2022/01/12 00:57:40;;;;;;;63.08;26.80;;;;;;;4.85;52.27;103254.00;4942539;28;97329;-77
2022/01/12 01:00:09;;;;;;;60.75;26.02;;;;;;;4.90;52.09;103247.16;4936239;28;96948;-75
2022/01/12 01:02:36;;;;;;;61.92;26.02;;;;;;;5.03;52.04;103253.59;4940997;28;99153;-78
2022/01/12 01:05:03;;;;;;;59.75;24.75;;;;;;;5.09;52.55;103248.53;4935314;28;97937;-75
2022/01/12 01:07:29;;;;;;;61.35;26.70;;;;;;;5.10;51.73;103245.94;4937507;28;97194;-77
2022/01/12 01:10:03;;;;;;;59.70;25.25;;;;;;;5.10;52.18;103248.56;4944174;28;98632;-76
2022/01/12 01:12:30;;;;;;;64.43;25.60;;;;;;;5.07;51.72;103253.72;4936532;28;99382;-76
2022/01/12 01:15:05;;;;;;;59.45;24.83;;;;;;;4.93;51.99;103241.97;4941687;28;98933;-75
2022/01/12 01:25:31;;;;;;;57.42;24.85;;;;;;;4.92;53.19;103240.22;4905570;28;97116;-72
2022/01/12 01:27:58;;;;;;;57.65;23.15;;;;;;;4.92;53.04;103245.47;4901012;28;97248;-73
2022/01/12 01:30:25;;;;;;;58.28;23.73;;;;;;;4.64;53.51;103245.53;4907033;28;96848;-74
2022/01/12 01:32:52;;;;;;;53.70;22.35;;;;;;;4.67;53.58;103241.25;4912559;28;98836;-75
2022/01/12 01:35:19;;;;;;;50.30;21.77;;;;;;;4.91;52.96;103241.06;4904573;28;98817;-75
2022/01/12 01:37:45;;;;;;;53.63;22.85;;;;;;;4.86;53.57;103247.03;4910578;28;98508;-75
2022/01/12 01:40:14;;;;;;;52.35;22.17;;;;;;;4.89;52.89;103249.72;4911131;28;96943;-74
2022/01/12 01:42:55;;;;;;;53.08;22.83;;;;;;;5.00;53.47;103254.38;4912615;28;99953;-73
2022/01/12 01:53:39;;;;;;;53.83;20.85;;;;;;;4.53;54.13;103241.72;4912387;28;97258;-73
2022/01/12 01:56:06;;;;;;;53.55;21.45;;;;;;;4.69;53.96;103246.53;4914112;28;98952;-73
2022/01/12 01:58:32;;;;;;;58.35;22.67;;;;;;;4.57;54.85;103246.19;4912602;28;97748;-73
2022/01/12 02:00:58;;;;;;;54.45;21.02;;;;;;;4.43;55.21;103256.25;4914013;28;96866;-73
2022/01/12 02:03:28;;;;;;;61.15;22.67;;;;;;;4.60;55.06;103257.63;4911075;28;99094;-74
2022/01/12 02:05:54;;;;;;;62.03;22.38;;;;;;;4.70;54.46;103254.44;4913536;28;99769;-73
2022/01/12 02:08:21;;;;;;;57.50;23.17;;;;;;;4.89;53.43;103244.47;4912153;28;97453;-73
2022/01/12 02:10:47;;;;;;;59.28;22.35;;;;;;;4.83;53.69;103245.19;4910007;28;99330;-73
2022/01/12 02:13:13;;;;;;;58.72;22.38;;;;;;;4.84;53.70;103246.09;4908708;28;99339;-75
2022/01/12 02:15:44;;;;;;;58.83;21.77;;;;;;;4.87;54.31;103236.56;4913306;28;99295;-75
2022/01/12 02:18:17;;;;;;;56.25;22.25;;;;;;;4.84;54.17;103233.88;4911810;28;96849;-75
2022/01/12 02:40:18;;;;;;;66.38;23.05;;;;;;;4.92;54.17;103236.72;4907663;28;98561;-75
2022/01/12 02:42:49;;;;;;;61.40;23.05;;;;;;;4.89;54.06;103228.75;4910946;28;97087;-74
2022/01/12 02:50:47;;;;;;;63.15;22.48;;;;;;;5.05;54.43;103228.34;4911877;28;97696;-74
2022/01/12 02:55:59;;;;;;;61.90;23.38;;;;;;;5.12;54.23;103231.13;4912436;28;97304;-73
2022/01/12 02:58:26;;;;;;;61.90;22.58;;;;;;;5.20;53.60;103229.59;4911281;28;98924;-74
2022/01/12 03:03:37;;;;;;;61.60;22.13;;;;;;;5.21;53.70;103231.38;4893231;28;98021;-73
2022/01/12 03:06:06;;;;;;;57.08;21.67;;;;;;;5.32;53.53;103230.75;4904761;28;99057;-74
2022/01/12 03:08:37;;;;;;;62.30;23.65;;;;;;;5.30;53.12;103229.84;4909662;28;98895;-74
2022/01/12 03:11:04;;;;;;;55.53;20.67;;;;;;;5.19;53.68;103233.06;4912449;28;97101;-75
2022/01/12 03:13:31;;;;;;;59.80;21.25;;;;;;;5.05;54.17;103229.22;4914443;28;96773;-73
2022/01/12 03:15:57;;;;;;;61.35;23.17;;;;;;;4.98;54.11;103224.66;4911797;28;99172;-75
2022/01/12 03:18:24;;;;;;;56.60;21.13;;;;;;;5.14;54.05;103221.59;4909896;28;99071;-74
2022/01/12 03:20:50;;;;;;;61.58;22.48;;;;;;;5.36;53.28;103216.91;4910339;28;96817;-74
2022/01/12 03:23:17;;;;;;;57.30;21.30;;;;;;;5.26;53.56;103217.50;4912455;28;96962;-74
2022/01/12 03:25:45;;;;;;;57.50;22.60;;;;;;;5.15;53.93;103218.13;4911568;28;99021;-73
2022/01/12 03:28:11;;;;;;;51.80;21.10;;;;;;;5.13;53.50;103219.81;4912035;28;99175;-75
2022/01/12 03:30:47;;;;;;;60.65;22.15;;;;;;;5.15;54.18;103223.38;4913033;28;96869;-73
2022/01/12 03:33:29;;;;;;;60.40;21.77;;;;;;;5.30;54.06;103217.63;4916087;28;96775;-72
2022/01/12 03:36:22;;;;;;;62.13;22.35;;;;;;;5.36;53.06;103215.16;4909649;28;98697;-74
2022/01/12 03:38:48;;;;;;;72.00;23.40;;;;;;;5.25;53.16;103221.00;4912826;28;98681;-73
2022/01/12 03:41:17;;;;;;;63.78;23.58;;;;;;;5.15;54.09;103223.38;4913991;28;97051;-75
2022/01/12 03:43:43;;;;;;;71.57;24.77;;;;;;;5.37;53.68;103216.06;4913881;28;97196;-74
2022/01/12 03:46:10;;;;;;;65.82;24.92;;;;;;;5.29;54.14;103226.34;4907795;28;99603;-74
2022/01/12 03:48:37;;;;;;;67.65;23.08;;;;;;;5.44;53.65;103216.25;4911861;28;99284;-73
2022/01/12 03:51:03;;;;;;;70.65;24.88;;;;;;;5.24;54.06;103227.06;4911316;28;96875;-75
2022/01/12 03:53:29;;;;;;;65.28;23.33;;;;;;;4.96;54.66;103226.34;4909932;28;97606;-73
2022/01/12 03:55:56;;;;;;;68.78;25.17;;;;;;;5.17;54.63;103226.91;4904563;28;99024;-73
2022/01/12 03:58:23;;;;;;;66.95;24.90;;;;;;;5.11;54.47;103234.63;4911790;28;98902;-73
2022/01/12 04:00:49;;;;;;;60.65;22.27;;;;;;;5.28;54.03;103226.28;4911540;28;96850;-73
2022/01/12 04:03:16;;;;;;;74.28;25.13;;;;;;;5.32;53.94;103231.66;4911669;28;96767;-74
2022/01/12 04:08:23;;;;;;;73.53;25.52;;;;;;;5.03;54.92;103233.53;4909166;28;98805;-74
2022/01/12 04:10:51;;;;;;;69.97;24.88;;;;;;;4.86;54.32;103223.44;4912764;28;97198;-73
2022/01/12 04:13:19;;;;;;;67.90;25.02;;;;;;;4.87;54.80;103220.84;4911212;28;96849;-74
2022/01/12 04:15:51;;;;;;;74.13;26.27;;;;;;;4.87;54.96;103226.09;4904825;28;99435;-74
2022/01/12 04:18:17;;;;;;;74.38;25.55;;;;;;;5.05;55.47;103221.38;4909124;28;101094;-74
2022/01/12 04:20:46;;;;;;;73.28;24.55;;;;;;;4.97;55.50;103217.66;4911069;28;97046;-75
2022/01/12 04:23:18;;;;;;;65.97;25.45;;;;;;;5.21;55.04;103218.28;4911637;28;98667;-74
2022/01/12 04:25:45;;;;;;;67.25;24.10;;;;;;;4.99;55.07;103221.16;4911781;28;99448;-74
2022/01/12 04:28:11;;;;;;;70.15;23.55;;;;;;;5.19;55.22;103213.81;4904207;28;97788;-74
2022/01/12 04:30:38;;;;;;;67.97;22.73;;;;;;;5.20;54.08;103215.59;4910161;28;99037;-73
2022/01/12 04:33:05;;;;;;;66.13;22.88;;;;;;;5.24;54.33;103213.97;4911070;28;97952;-75
2022/01/12 04:35:34;;;;;;;68.50;23.02;;;;;;;5.19;54.25;103225.19;4911562;28;99040;-74
2022/01/12 04:38:01;;;;;;;65.80;23.60;;;;;;;5.22;53.93;103232.28;4907135;28;98870;-75
2022/01/12 04:40:27;;;;;;;64.97;22.55;;;;;;;5.18;54.61;103222.56;4908032;28;97865;-75
2022/01/12 04:42:54;;;;;;;63.75;23.17;;;;;;;5.16;54.99;103225.13;4907410;28;98579;-74
2022/01/12 04:45:37;;;;;;;67.25;24.08;;;;;;;5.21;54.74;103227.88;4904538;28;98084;-75
2022/01/12 04:48:19;;;;;;;68.15;23.42;;;;;;;5.28;54.63;103226.28;4913952;28;98871;-76
2022/01/12 04:50:48;;;;;;;66.70;23.63;;;;;;;5.22;54.04;103227.91;4914562;28;96911;-76
2022/01/12 04:53:17;;;;;;;70.70;24.08;;;;;;;5.45;54.09;103236.34;4913160;28;97529;-75
2022/01/12 04:55:43;;;;;;;63.58;23.98;;;;;;;5.21;53.71;103218.28;4909649;28;99515;-74
2022/01/12 04:58:10;;;;;;;65.93;22.45;;;;;;;5.10;54.77;103230.22;4913591;28;99218;-74
2022/01/12 05:00:38;;;;;;;60.50;22.45;;;;;;;4.92;55.30;103234.09;4912454;28;97271;-72
2022/01/12 05:09:06;;;;;;;68.13;22.85;;;;;;;5.19;54.68;103246.16;4892027;28;98993;-73
2022/01/12 05:14:17;;;;;;;65.55;23.05;;;;;;;5.11;54.86;103234.63;4906195;28;99868;-72
2022/01/12 05:16:43;;;;;;;60.80;22.92;;;;;;;5.44;54.62;103241.59;4911265;28;99145;-73
2022/01/12 05:19:10;;;;;;;60.92;22.70;;;;;;;5.32;54.38;103244.75;4913534;28;99010;-73
2022/01/12 05:21:37;;;;;;;62.70;23.10;;;;;;;5.36;54.45;103240.50;4911114;28;96882;-72
2022/01/12 05:24:06;;;;;;;63.40;21.80;;;;;;;5.49;53.61;103229.47;4911624;28;98558;-72
2022/01/12 05:26:33;;;;;;;62.90;23.00;;;;;;;5.66;53.68;103228.13;4911528;28;98986;-74
2022/01/12 05:28:59;;;;;;;54.05;21.70;;;;;;;5.63;53.64;103235.94;4908709;28;99127;-73
2022/01/12 05:31:26;;;;;;;68.53;23.85;;;;;;;5.45;53.92;103238.09;4912137;28;96934;-74
2022/01/12 05:33:52;;;;;;;55.83;21.08;;;;;;;5.42;53.53;103228.41;4914302;28;97024;-75
2022/01/12 05:36:21;;;;;;;58.17;21.52;;;;;;;5.46;53.80;103225.00;4907363;28;101966;-75
2022/01/12 05:38:49;;;;;;;69.15;22.85;;;;;;;5.36;54.43;103233.50;4903934;28;99338;-75
2022/01/12 05:41:16;;;;;;;60.30;23.15;;;;;;;5.36;55.28;103228.28;4913656;28;98741;-75
2022/01/12 05:43:44;;;;;;;62.38;22.90;;;;;;;5.51;54.29;103220.75;4913550;28;97204;-74
2022/01/12 05:46:13;;;;;;;54.88;21.10;;;;;;;5.76;53.75;103214.38;4910607;28;100909;-74
2022/01/12 05:51:24;;;;;;;68.43;23.05;;;;;;;5.37;54.07;103192.44;4912374;28;96913;-74
2022/01/12 05:53:52;;;;;;;66.03;23.25;;;;;;;5.28;54.56;103192.22;4913615;28;99696;-74
2022/01/12 05:56:19;;;;;;;62.92;22.35;;;;;;;5.45;54.77;103188.25;4908409;28;99188;-74
2022/01/12 05:58:46;;;;;;;62.65;23.05;;;;;;;5.42;54.83;103185.56;4913209;28;99045;-74
2022/01/12 06:01:12;;;;;;;63.35;22.63;;;;;;;5.46;54.92;103188.31;4915991;28;96966;-74
2022/01/12 06:03:38;;;;;;;61.05;23.17;;;;;;;5.57;54.39;103196.44;4911992;28;99163;-74
2022/01/12 06:06:05;;;;;;;57.50;21.40;;;;;;;5.75;53.91;103207.38;4911338;28;97655;-75
2022/01/12 06:08:31;;;;;;;57.60;20.73;;;;;;;5.39;53.94;103190.72;4913568;28;99834;-74
2022/01/12 06:10:59;;;;;;;56.47;20.90;;;;;;;5.14;54.43;103191.84;4910709;28;97174;-74
2022/01/12 06:13:25;;;;;;;59.83;20.73;;;;;;;5.08;55.32;103186.47;4911209;28;96808;-73
2022/01/12 06:15:52;;;;;;;54.38;20.00;;;;;;;5.10;55.78;103192.66;4912744;28;99093;-74
2022/01/12 06:18:18;;;;;;;53.05;19.02;;;;;;;5.15;55.02;103193.63;4908572;28;99156;-73
2022/01/12 06:20:45;;;;;;;54.88;20.90;;;;;;;5.40;54.78;103196.03;4913216;28;98311;-74
2022/01/12 06:23:11;;;;;;;53.13;19.55;;;;;;;5.32;55.12;103192.31;4917625;28;98341;-73
2022/01/12 06:25:37;;;;;;;53.60;19.95;;;;;;;5.26;54.76;103194.78;4908204;28;99034;-74
2022/01/12 06:28:24;;;;;;;49.45;18.95;;;;;;;5.33;54.39;103190.59;4909040;28;99224;-75
2022/01/12 06:33:45;;;;;;;59.70;20.38;;;;;;;5.33;54.28;103195.81;4891906;28;97263;-73
2022/01/12 06:36:12;;;;;;;56.60;18.60;;;;;;;5.37;54.25;103205.56;4907812;28;101639;-75
2022/01/12 06:38:39;;;;;;;57.75;20.30;;;;;;;5.18;55.31;103212.09;4904902;28;99393;-75
2022/01/12 06:41:05;;;;;;;57.60;19.85;;;;;;;5.41;54.65;103220.50;4910907;28;96919;-75
2022/01/12 06:43:33;;;;;;;59.53;21.67;;;;;;;5.46;54.28;103219.78;4913255;28;96852;-74
2022/01/12 06:46:00;;;;;;;59.90;21.73;;;;;;;5.48;54.79;103214.56;4910912;28;99588;-74
2022/01/12 06:48:27;;;;;;;57.92;21.10;;;;;;;5.41;54.58;103208.28;4909342;28;99229;-74
2022/01/12 06:50:53;;;;;;;59.70;21.42;;;;;;;5.19;54.83;103212.09;4912161;28;96725;-75
2022/01/12 06:53:19;;;;;;;61.75;21.52;;;;;;;5.26;55.20;103214.88;4910316;28;96870;-74
2022/01/12 06:55:46;;;;;;;66.05;21.00;;;;;;;5.24;54.77;103214.84;4909440;28;99139;-74
2022/01/12 06:58:12;;;;;;;66.72;23.67;;;;;;;5.17;56.15;103221.69;4908393;28;98886;-74
2022/01/12 07:00:40;;;;;;;66.68;21.92;;;;;;;5.10;55.79;103219.75;4912332;28;97825;-74
2022/01/12 07:03:06;;;;;;;66.15;22.33;;;;;;;5.18;55.13;103226.06;4911441;28;97639;-74
2022/01/12 07:05:33;;;;;;;63.78;22.80;;;;;;;5.00;56.35;103227.28;4912807;28;99174;-74
2022/01/12 07:07:59;;;;;;;65.85;21.83;;;;;;;5.50;55.76;103224.25;4907149;28;99469;-75
2022/01/12 07:10:26;;;;;;;66.28;23.63;;;;;;;5.69;54.59;103227.31;4909558;28;96933;-75
2022/01/12 07:12:52;;;;;;;65.75;23.02;;;;;;;5.38;54.73;103230.94;4911554;28;96982;-74
2022/01/12 07:15:18;;;;;;;64.13;22.45;;;;;;;5.50;54.95;103228.63;4908010;28;99479;-73
2022/01/12 07:17:47;;;;;;;63.10;23.67;;;;;;;5.58;55.38;103224.41;4909755;28;99280;-74
2022/01/12 07:20:14;;;;;;;61.70;22.58;;;;;;;5.61;55.20;103227.13;4908438;28;96771;-73
2022/01/12 07:22:40;;;;;;;66.75;23.25;;;;;;;5.83;54.35;103231.16;4959248;22;97527;-75
2022/01/12 07:25:07;;;;;;;68.30;23.08;;;;;;;5.74;53.98;103233.56;4950174;28;99355;-74
2022/01/12 07:27:36;;;;;;;68.93;23.00;;;;;;;5.73;54.39;103239.66;4951554;28;98904;-75
2022/01/12 07:30:03;;;;;;;59.75;21.85;;;;;;;5.76;53.93;103240.63;4948209;28;98255;-75
2022/01/12 07:32:30;;;;;;;65.47;21.98;;;;;;;5.96;54.24;103234.16;4942947;28;97349;-75
2022/01/12 07:34:57;;;;;;;66.35;24.38;;;;;;;5.97;54.16;103235.03;4935792;28;98886;-74
2022/01/12 07:37:24;;;;;;;67.05;22.20;;;;;;;5.79;53.82;103227.56;4936128;28;99322;-74
2022/01/12 07:39:50;;;;;;;67.28;23.25;;;;;;;6.00;53.77;103227.22;4929099;28;96827;-75
2022/01/12 07:42:17;;;;;;;68.65;22.77;;;;;;;6.11;53.94;103227.44;4934167;28;96838;-74
2022/01/12 07:48:05;;;;;;;65.50;23.13;;;;;;;6.07;54.03;103241.34;4920701;28;97010;-75
2022/01/12 07:50:33;;;;;;;65.18;22.73;;;;;;;6.21;53.56;103242.56;4927882;28;96875;-75
2022/01/12 07:53:00;;;;;;;61.70;22.67;;;;;;;6.22;53.65;103253.09;4935851;28;96921;-72
2022/01/12 07:55:27;;;;;;;62.78;22.08;;;;;;;6.17;53.89;103249.47;4931781;28;98599;-77
2022/01/12 07:57:53;;;;;;;68.53;23.42;;;;;;;6.18;52.98;103243.38;4927855;28;97677;-77
2022/01/12 08:00:21;;;;;;;78.93;23.67;;;;;;;6.44;53.28;103251.81;4931333;28;97437;-74
2022/01/12 08:02:49;;;;;;;66.22;23.27;;;;;;;6.18;53.05;103245.09;4927034;28;96824;-74
2022/01/12 08:05:16;;;;;;;63.58;23.42;;;;;;;6.59;52.47;103249.50;4925963;28;99029;-77
2022/01/12 08:07:47;;;;;;;67.30;22.95;;;;;;;6.56;52.78;103259.97;4929834;28;101524;-78
2022/01/12 08:10:17;;;;;;;68.22;24.85;;;;;;;6.53;52.33;103256.38;4932904;28;96852;-76
2022/01/12 08:12:45;;;;;;;68.05;23.98;;;;;;;6.65;52.42;103265.41;4933266;28;97207;-75
2022/01/12 08:15:11;;;;;;;67.38;23.88;;;;;;;6.51;52.34;103271.22;4929680;28;99090;-78
2022/01/12 08:17:38;;;;;;;67.30;23.77;;;;;;;6.73;52.65;103274.31;4935231;28;101302;-75
2022/01/12 08:20:08;;;;;;;65.85;23.20;;;;;;;6.73;52.46;103279.59;4938672;28;96978;-75
2022/01/12 08:22:35;;;;;;;65.28;22.23;;;;;;;6.94;51.76;103262.47;4936314;28;96965;-76
2022/01/12 08:25:04;;;;;;;62.30;22.27;;;;;;;6.74;52.00;103262.97;4933727;28;99465;-78
2022/01/12 08:27:30;;;;;;;64.40;22.75;;;;;;;6.75;51.84;103259.50;4932488;28;100495;-78
2022/01/12 08:30:00;;;;;;;69.95;23.05;;;;;;;6.83;52.26;103266.63;4932850;28;97154;-79
2022/01/12 08:32:27;;;;;;;67.07;22.08;;;;;;;6.82;52.07;103263.13;4932323;28;97169;-74
2022/01/12 08:34:53;;;;;;;62.55;22.98;;;;;;;7.07;52.00;103269.72;4934679;28;99167;-76
2022/01/12 08:37:20;;;;;;;67.18;22.05;;;;;;;7.00;52.12;103273.09;4933368;28;99072;-78
2022/01/12 08:39:46;;;;;;;68.03;24.17;;;;;;;7.14;51.60;103280.41;4935845;28;96965;-77
2022/01/12 08:42:14;;;;;;;66.00;22.65;;;;;;;7.13;51.65;103277.72;4953215;22;97411;-76
2022/01/12 08:44:42;;;;;;;62.95;23.00;;;;;;;7.20;51.31;103285.78;4951734;28;102816;-75
2022/01/12 08:47:09;;;;;;;69.07;24.33;;;;;;;7.14;51.59;103283.03;4955133;28;99098;-76
2022/01/12 08:49:37;;;;;;;69.78;23.92;;;;;;;7.03;51.95;103284.53;4955441;28;97232;-75
2022/01/12 08:52:06;;;;;;;69.47;24.25;;;;;;;7.06;51.90;103279.38;4952295;28;97382;-76
2022/01/12 08:54:33;;;;;;;75.72;24.15;;;;;;;7.23;51.76;103287.56;4949294;28;98505;-76
2022/01/12 08:57:00;;;;;;;64.90;23.63;;;;;;;7.22;51.33;103283.16;4942055;28;98989;-75
2022/01/12 08:59:28;;;;;;;78.50;25.23;;;;;;;7.20;51.67;103279.63;4949905;28;97947;-75
2022/01/12 09:01:55;;;;;;;68.38;25.20;;;;;;;7.24;51.48;103281.44;4949695;28;97590;-75
2022/01/12 09:04:22;;;;;;;66.63;23.98;;;;;;;7.28;52.07;103277.13;4940739;28;98251;-76
2022/01/12 09:06:52;;;;;;;70.57;22.60;;;;;;;7.27;50.98;103289.41;4948518;28;99860;-75
2022/01/12 09:09:18;;;;;;;67.63;24.83;;;;;;;7.22;51.96;103284.91;4946921;28;97415;-76
2022/01/12 09:11:47;;;;;;;67.97;23.65;;;;;;;7.30;51.79;103278.91;4944148;28;98155;-75
2022/01/12 09:14:13;;;;;;;68.55;24.77;;;;;;;7.41;51.82;103282.66;4941929;28;99084;-73
2022/01/12 09:16:41;;;;;;;65.43;23.27;;;;;;;7.55;51.68;103285.50;4940253;28;98977;-76
2022/01/12 09:19:09;;;;;;;66.85;24.55;;;;;;;7.41;51.56;103290.53;4956112;28;97037;-76
2022/01/12 09:21:39;;;;;;;64.18;22.88;;;;;;;7.59;51.51;103293.50;4949032;28;98499;-76
2022/01/12 09:24:06;;;;;;;67.47;23.38;;;;;;;7.63;51.60;103286.50;4950180;28;97930;-78
2022/01/12 09:26:37;;;;;;;69.20;24.90;;;;;;;7.57;51.62;103287.31;4947419;28;99178;-76
2022/01/12 09:29:04;;;;;;;65.57;23.80;;;;;;;7.92;50.94;103276.47;4945396;28;96872;-76
2022/01/12 09:31:37;;;;;;;69.30;24.27;;;;;;;7.65;51.05;103281.28;4953620;28;96742;-76
2022/01/12 09:34:06;;;;;;;63.97;24.40;;;;;;;7.54;51.91;103279.38;4940650;28;100943;-76
2022/01/12 09:36:36;;;;;;;70.40;22.42;;;;;;;7.82;51.60;103274.53;4942145;28;98912;-77
2022/01/12 09:39:06;;;;;;;61.17;22.45;;;;;;;7.77;52.02;103271.84;4958237;28;96837;-75
2022/01/12 09:44:15;;;;;;;65.50;23.23;;;;;;;7.76;52.30;103266.53;4953968;28;98476;-76
2022/01/12 09:46:45;;;;;;;62.92;22.95;;;;;;;7.80;52.87;103264.00;4948608;28;98191;-76
2022/01/12 09:49:20;;;;;;;72.43;23.55;;;;;;;7.77;53.12;103276.22;4945231;28;97232;-75
2022/01/12 09:51:57;;;;;;;62.30;22.65;;;;;;;7.95;52.68;103265.97;4948695;28;97306;-77
2022/01/12 09:54:24;;;;;;;60.30;21.70;;;;;;;7.85;52.73;103262.31;4945351;28;99154;-76
2022/01/12 09:57:12;;;;;;;63.47;21.42;;;;;;;7.95;52.40;103260.69;4942943;28;98925;-75
2022/01/12 09:59:52;;;;;;;;;;;;;;;;;;;;;
2022/01/12 10:02:24;;;;;;;57.10;21.38;;;;;;;7.48;53.01;103252.94;4940268;28;117972;-76
2022/01/12 10:05:19;;;;;;;54.92;21.80;;;;;;;7.88;53.61;103251.81;4945290;28;99476;-75
2022/01/12 10:07:45;;;;;;;63.45;21.45;;;;;;;7.91;53.40;103251.00;4947954;28;99427;-76
2022/01/12 10:10:15;;;;;;;56.05;20.15;;;;;;;7.91;53.41;103248.38;4943111;28;98774;-76
2022/01/12 10:12:52;;;;;;;51.75;20.35;;;;;;;8.31;52.52;103241.97;4939768;28;96986;-77
2022/01/12 10:15:19;;;;;;;51.78;20.30;;;;;;;8.44;52.59;103243.00;4941059;28;98857;-77
2022/01/12 10:17:46;;;;;;;64.55;22.05;;;;;;;8.68;51.92;103252.09;4948579;28;99302;-77
2022/01/12 10:20:19;;;;;;;57.72;19.67;;;;;;;8.46;51.97;103244.81;4954559;28;98150;-78
2022/01/12 10:22:58;;;;;;;51.13;19.60;;;;;;;8.42;52.45;103240.34;4950925;28;97720;-76
2022/01/12 10:25:27;;;;;;;53.05;20.30;;;;;;;8.82;51.71;103230.28;4950908;28;98042;-77
2022/01/12 10:27:54;;;;;;;46.70;19.27;;;;;;;8.82;51.58;103233.78;4954819;28;98869;-76
2022/01/12 10:30:37;;;;;;;54.50;20.60;;;;;;;8.72;51.74;103222.28;4952855;28;97325;-76
2022/01/12 10:33:06;;;;;;;53.70;19.80;;;;;;;8.66;51.80;103226.59;4946223;28;97390;-76
2022/01/12 10:35:36;;;;;;;49.47;19.58;;;;;;;8.58;52.22;103229.13;4948048;28;99709;-76
2022/01/12 10:38:13;;;;;;;46.00;18.75;;;;;;;8.63;52.35;103229.19;4943017;28;98743;-75
2022/01/12 10:40:52;;;;;;;51.17;20.40;;;;;;;8.56;51.83;103237.88;4944742;28;96780;-75
2022/01/12 10:43:29;;;;;;;55.05;19.25;;;;;;;8.28;53.02;103229.59;4941866;28;97317;-76
2022/01/12 10:45:56;;;;;;;47.30;18.55;;;;;;;8.36;52.62;103232.34;4950050;28;99203;-75
2022/01/12 10:48:24;;;;;;;44.85;17.42;;;;;;;8.30;52.90;103225.25;4950557;28;99535;-77
2022/01/12 10:51:00;;;;;;;41.17;17.77;;;;;;;8.80;51.85;103219.69;4938939;28;96871;-75
2022/01/12 10:53:29;;;;;;;42.03;18.55;;;;;;;8.62;51.33;103219.50;4943274;28;96888;-76
2022/01/12 10:56:04;;;;;;;46.67;17.13;;;;;;;8.79;51.84;103217.97;4946649;28;101947;-75
2022/01/12 10:58:31;;;;;;;47.83;18.85;;;;;;;8.83;51.42;103225.03;4939280;28;99290;-76
2022/01/12 11:00:58;;;;;;;45.92;18.75;;;;;;;8.53;52.14;103225.56;4943878;28;97617;-76
2022/01/12 11:03:25;;;;;;;40.20;17.60;;;;;;;8.68;51.76;103225.72;4947494;28;98247;-76
2022/01/12 11:05:55;;;;;;;44.25;18.55;;;;;;;8.81;51.68;103232.03;4942400;28;98881;-75
2022/01/12 11:08:26;;;;;;;46.63;18.20;;;;;;;8.32;53.08;103236.72;4936474;28;101736;-76
2022/01/12 11:10:57;;;;;;;49.60;18.88;;;;;;;8.40;52.76;103237.69;4943176;28;98373;-78
2022/01/12 11:13:24;;;;;;;44.80;19.23;;;;;;;8.43;52.55;103236.84;4939867;28;98290;-77
2022/01/12 11:15:52;;;;;;;40.88;18.55;;;;;;;8.25;53.90;103242.72;4935721;28;101608;-77
2022/01/12 11:18:22;;;;;;;40.85;18.02;;;;;;;8.03;54.16;103235.38;4949095;28;98806;-74
2022/01/12 11:20:51;;;;;;;49.50;18.48;;;;;;;8.32;53.93;103231.44;4940021;28;97193;-75
2022/01/12 11:23:20;;;;;;;45.60;19.75;;;;;;;8.20;54.51;103228.63;4947081;28;98168;-76
2022/01/12 11:25:49;;;;;;;41.80;18.63;;;;;;;7.98;54.61;103223.91;4942156;28;99281;-76
2022/01/12 11:28:17;;;;;;;49.03;20.27;;;;;;;8.11;54.31;103211.78;4941388;28;99174;-76
2022/01/12 11:30:47;;;;;;;51.28;19.27;;;;;;;8.39;53.50;103225.41;4940264;28;96759;-76
2022/01/12 11:33:15;;;;;;;52.80;20.38;;;;;;;8.54;53.01;103226.41;4945982;28;97839;-76
2022/01/12 11:35:47;;;;;;;45.15;19.42;;;;;;;8.67;52.72;103238.88;4945749;28;98968;-77
2022/01/12 11:38:23;;;;;;;46.13;20.20;;;;;;;7.90;53.50;103238.69;4944863;28;98756;-76
2022/01/12 11:40:53;;;;;;;45.80;16.15;;;;;;;8.07;54.37;103225.78;4954024;28;97227;-77
2022/01/12 11:43:23;;;;;;;54.38;20.35;;;;;;;8.54;53.94;103218.50;4953336;28;97503;-76
2022/01/12 11:46:02;;;;;;;56.05;21.35;;;;;;;8.23;54.72;103226.00;4961227;28;98843;-77
2022/01/12 11:48:30;;;;;;;52.97;20.17;;;;;;;8.36;54.30;103227.97;4961987;28;97708;-76
2022/01/12 11:50:57;;;;;;;53.13;20.85;;;;;;;8.22;54.91;103229.50;4954523;28;96871;-77
2022/01/12 11:53:23;;;;;;;53.67;20.20;;;;;;;8.34;54.89;103227.06;4939325;28;99519;-76
2022/01/12 11:55:52;;;;;;;61.13;22.02;;;;;;;8.79;54.27;103231.16;4948287;28;98113;-76
2022/01/12 11:58:19;;;;;;;52.58;20.02;;;;;;;8.65;54.46;103241.53;4950445;28;98931;-75
2022/01/12 12:00:49;;;;;;;60.58;22.08;;;;;;;7.84;55.20;103236.84;4939451;28;98080;-75
2022/01/12 12:03:17;;;;;;;58.95;23.10;;;;;;;8.09;56.38;103246.00;4943234;28;96896;-75
2022/01/12 12:05:45;;;;;;;63.95;22.45;;;;;;;8.47;55.25;103238.63;4943829;28;101578;-75
2022/01/12 12:08:12;;;;;;;57.00;22.67;;;;;;;8.34;56.00;103239.34;4942982;28;99734;-76
2022/01/12 12:10:44;;;;;;;64.95;24.17;;;;;;;8.35;56.03;103235.84;4946666;28;96703;-74
2022/01/12 12:13:13;;;;;;;68.55;22.77;;;;;;;8.29;55.76;103228.72;4947712;28;96931;-76
2022/01/12 12:15:39;;;;;;;62.50;23.40;;;;;;;8.18;55.99;103224.19;4941528;28;101322;-73
2022/01/12 12:18:07;;;;;;;58.10;22.83;;;;;;;7.82;57.83;103229.78;4943589;28;99180;-74
2022/01/12 12:20:34;;;;;;;63.95;25.23;;;;;;;8.12;57.42;103232.88;4945440;28;98579;-77
2022/01/12 12:23:02;;;;;;;70.70;26.45;;;;;;;8.33;56.77;103235.84;4944376;28;97032;-75
2022/01/12 12:25:30;;;;;;;67.55;25.33;;;;;;;8.45;56.40;103247.41;4940414;28;100010;-75
2022/01/12 12:27:58;;;;;;;71.40;24.80;;;;;;;8.70;55.89;103247.72;4953231;28;98873;-74
2022/01/12 12:30:27;;;;;;;72.80;24.02;;;;;;;8.71;56.26;103240.72;4947168;28;97261;-74
2022/01/12 12:32:56;;;;;;;65.97;25.40;;;;;;;8.70;56.27;103244.19;4947185;28;96717;-73
2022/01/12 12:35:27;;;;;;;74.82;26.55;;;;;;;8.24;57.37;103238.31;4941050;28;99256;-73
2022/01/12 12:37:56;;;;;;;68.22;25.02;;;;;;;8.52;57.53;103249.25;4942433;28;99466;-74